Sioux Falls, SD

2:12 PM CST on February 14, 2016 (GMT -0600)
HADS | | Change Station
CLOSE
Current Station
Personal Weather Station
Location: Sioux Falls, SD
Elevation: 1292 ft
Nearby Weather Stations

Elev 1292 ft 43.57 °N, 96.71 °W | Updated 42 minutes ago

Overcast
Overcast
26.0 °F
Feels Like 26.0 °F
N
0.0
Wind Variable Wind from North
Gusts 0.0 mph

Today
High -- | Low -- °F
--% Chance of Precip.
Yesterday
High -- | Low -- °F
Precip. -- in
Pressure 29.88 in
Visibility 10.0 miles
Clouds Overcast 2600 ft
Dew Point Not available.
Humidity Not available.
Rainfall in
Snow Depth Not available.
7:27 AM 5:55 PM
Waxing Crescent, 45% visible
METAR KFSD 141956Z 20003KT 10SM OVC026 M07/M09 A2980 RMK AO2 SLP116 T10671094
Pressure 29.88 in
Visibility 10.0 miles
Clouds Overcast 2600 ft
Dew Point Not available.
Humidity Not available.
Rainfall in
Snow Depth Not available.
7:27 AM 5:55 PM
Waxing Crescent, 45% visible
METAR KFSD 141956Z 20003KT 10SM OVC026 M07/M09 A2980 RMK AO2 SLP116 T10671094

10-Day Weather Forecast

Almanac

Astronomy

Feb. 14, 2016 Rise Set
Actual Time
Civil Twilight
Nautical Twilight
Astronomical Twilight
Moon
Length of Visible Light
Length of Day
Tomorrow will be .
, % of the Moon is Illuminated

Today's Extremes

State Highs State Lows

Community

WunderPhotos

Upload Photos

1,892,880 photos uploaded!

WunderBlog® & News

Nearby

Air Quality

  Air Quality AQ Index Pollutant
Not available.

Snow Depth

Station Depth Elevation

Earthquake Activity

City Distance Mag. Time & Date
Minimum magnitude displayed is 2.5.

Coastal Water Temperatures

Place Temperature

Stations

Nearby Weather Stations

Station Location Temp. Windchill Dew Point Humidity Wind Precip. Elev Updated Type
                   

Watches & Warnings

There are currently no watches in effect.